Etusivu
METAR-TAF:

METAR-TAF

Lentoasemat :

Villavicencio, Kolumbia

Leveyspiiri: 04-10N, Pituuspiiri: 073-37W, korkeus merenpinnasta: 423 m

Tämänhetkinen sää

Tämä raportti tehtiin 45 minuuttia sitten, kello 17.00 UTC
tyyntä
Lämpötila 29°C
Kosteus 74%
Ilmanpaine 1014 hPa
Näkyvyys 10 km tai enemmän
Hajanaisia pilviä 2000 ft:n korkeudessa
Hajanaisia pilviä 9000 ft:n korkeudessa

METAR: SKVV 131700Z 00000KT 9999 SCT020 SCT090 29/24 Q1014

Aika: 12:45 (17:45 UTC)


TAF: puuttuu

Säähavainnot ja -ennusteet yli 4000 lentoasemalta (METAR- ja TAF-raportit).

Käytössä olevat sääasemat on merkitty karttaan keltaisilla ja punaisilla pisteillä.

Aseta hiiri pisteen päälle nähdäksesi sääaseman nimen.

Klikkaa sitten nähdäksesi säähavainnot ja -ennusteet.

Kartan vaihtaminen: klikkaa mustalla rastilla varustettuja vihreitä pisteitä, niin voit zoomata sisään; viivalla varustettua vihreää pistettä, niin voit zoomata ulos tai vihreitä nuolia, niin pääset viereisille kartoille.


METAR-TAF: